sensor_id;sensor_type;location;lat;lon;timestamp;temperature;humidity
25192;DHT22;13143;50.924;5.320;2023-10-31T00:01:50;13.20;99.90
25192;DHT22;13143;50.924;5.320;2023-10-31T00:04:16;13.20;99.90
25192;DHT22;13143;50.924;5.320;2023-10-31T00:06:41;13.20;99.90
25192;DHT22;13143;50.924;5.320;2023-10-31T00:09:07;13.20;99.90
25192;DHT22;13143;50.924;5.320;2023-10-31T00:11:33;13.20;99.90
25192;DHT22;13143;50.924;5.320;2023-10-31T00:13:59;13.20;99.90
25192;DHT22;13143;50.924;5.320;2023-10-31T00:16:24;13.20;99.90
25192;DHT22;13143;50.924;5.320;2023-10-31T00:18:50;13.20;99.90
25192;DHT22;13143;50.924;5.320;2023-10-31T00:21:16;13.20;99.90
25192;DHT22;13143;50.924;5.320;2023-10-31T00:23:48;13.20;99.90
25192;DHT22;13143;50.924;5.320;2023-10-31T00:26:15;13.10;99.90
25192;DHT22;13143;50.924;5.320;2023-10-31T00:28:40;13.20;99.90
25192;DHT22;13143;50.924;5.320;2023-10-31T00:31:07;13.10;99.90
25192;DHT22;13143;50.924;5.320;2023-10-31T00:33:36;13.10;99.90
25192;DHT22;13143;50.924;5.320;2023-10-31T00:36:02;13.10;99.90
25192;DHT22;13143;50.924;5.320;2023-10-31T00:38:28;13.10;99.90
25192;DHT22;13143;50.924;5.320;2023-10-31T00:40:54;13.10;99.90
25192;DHT22;13143;50.924;5.320;2023-10-31T00:43:19;13.10;99.90
25192;DHT22;13143;50.924;5.320;2023-10-31T00:45:45;13.10;99.90
25192;DHT22;13143;50.924;5.320;2023-10-31T00:48:11;13.10;99.90
25192;DHT22;13143;50.924;5.320;2023-10-31T00:50:37;13.10;99.90
25192;DHT22;13143;50.924;5.320;2023-10-31T00:53:02;13.10;99.90
25192;DHT22;13143;50.924;5.320;2023-10-31T00:55:28;13.10;99.90
25192;DHT22;13143;50.924;5.320;2023-10-31T00:57:54;13.00;99.90
25192;DHT22;13143;50.924;5.320;2023-10-31T01:00:20;13.00;99.90
25192;DHT22;13143;50.924;5.320;2023-10-31T01:02:45;13.00;99.90
25192;DHT22;13143;50.924;5.320;2023-10-31T01:05:11;13.00;99.90
25192;DHT22;13143;50.924;5.320;2023-10-31T01:07:37;13.00;99.90
25192;DHT22;13143;50.924;5.320;2023-10-31T01:10:03;13.00;99.90
25192;DHT22;13143;50.924;5.320;2023-10-31T01:12:30;13.00;99.90
25192;DHT22;13143;50.924;5.320;2023-10-31T01:14:56;13.00;99.90
25192;DHT22;13143;50.924;5.320;2023-10-31T01:17:22;13.00;99.90
25192;DHT22;13143;50.924;5.320;2023-10-31T01:19:48;13.00;99.90
25192;DHT22;13143;50.924;5.320;2023-10-31T01:22:14;13.00;99.90
25192;DHT22;13143;50.924;5.320;2023-10-31T01:24:40;13.00;99.90
25192;DHT22;13143;50.924;5.320;2023-10-31T01:27:05;13.00;99.90
25192;DHT22;13143;50.924;5.320;2023-10-31T01:29:31;13.00;99.90
25192;DHT22;13143;50.924;5.320;2023-10-31T01:31:57;12.90;99.90
25192;DHT22;13143;50.924;5.320;2023-10-31T01:34:23;13.00;99.90
25192;DHT22;13143;50.924;5.320;2023-10-31T01:36:48;12.90;99.90
25192;DHT22;13143;50.924;5.320;2023-10-31T01:39:14;12.90;99.90
25192;DHT22;13143;50.924;5.320;2023-10-31T01:41:43;12.90;99.90
25192;DHT22;13143;50.924;5.320;2023-10-31T01:44:10;12.90;99.90
25192;DHT22;13143;50.924;5.320;2023-10-31T01:46:36;12.90;99.90
25192;DHT22;13143;50.924;5.320;2023-10-31T01:49:02;12.90;99.90
25192;DHT22;13143;50.924;5.320;2023-10-31T01:51:28;12.90;99.90
25192;DHT22;13143;50.924;5.320;2023-10-31T01:53:55;12.90;99.90
25192;DHT22;13143;50.924;5.320;2023-10-31T01:56:22;12.90;99.90
25192;DHT22;13143;50.924;5.320;2023-10-31T01:58:49;12.90;99.90
25192;DHT22;13143;50.924;5.320;2023-10-31T02:01:15;12.90;99.90
25192;DHT22;13143;50.924;5.320;2023-10-31T02:03:41;12.90;99.90
25192;DHT22;13143;50.924;5.320;2023-10-31T02:06:07;12.90;99.90
25192;DHT22;13143;50.924;5.320;2023-10-31T02:08:33;12.90;99.90
25192;DHT22;13143;50.924;5.320;2023-10-31T02:11:01;12.90;99.90
25192;DHT22;13143;50.924;5.320;2023-10-31T02:13:29;12.90;99.90
25192;DHT22;13143;50.924;5.320;2023-10-31T02:15:55;12.90;99.90
25192;DHT22;13143;50.924;5.320;2023-10-31T02:18:21;12.90;99.90
25192;DHT22;13143;50.924;5.320;2023-10-31T02:20:47;12.80;99.90
25192;DHT22;13143;50.924;5.320;2023-10-31T02:23:15;12.90;99.90
25192;DHT22;13143;50.924;5.320;2023-10-31T02:25:41;12.80;99.90
25192;DHT22;13143;50.924;5.320;2023-10-31T02:28:07;12.80;99.90
25192;DHT22;13143;50.924;5.320;2023-10-31T02:30:34;12.80;99.90
25192;DHT22;13143;50.924;5.320;2023-10-31T02:33:01;12.80;99.90
25192;DHT22;13143;50.924;5.320;2023-10-31T02:35:27;12.80;99.90
25192;DHT22;13143;50.924;5.320;2023-10-31T02:37:52;12.80;99.90
25192;DHT22;13143;50.924;5.320;2023-10-31T02:40:18;12.80;99.90
25192;DHT22;13143;50.924;5.320;2023-10-31T02:42:44;12.80;99.90
25192;DHT22;13143;50.924;5.320;2023-10-31T02:45:10;12.80;99.90
25192;DHT22;13143;50.924;5.320;2023-10-31T02:47:38;12.80;99.90
25192;DHT22;13143;50.924;5.320;2023-10-31T02:50:04;12.80;99.90
25192;DHT22;13143;50.924;5.320;2023-10-31T02:52:30;12.80;99.90
25192;DHT22;13143;50.924;5.320;2023-10-31T02:54:56;12.80;99.90
25192;DHT22;13143;50.924;5.320;2023-10-31T02:57:22;12.80;99.90
25192;DHT22;13143;50.924;5.320;2023-10-31T02:59:48;12.80;99.90
25192;DHT22;13143;50.924;5.320;2023-10-31T03:02:13;12.80;99.90
25192;DHT22;13143;50.924;5.320;2023-10-31T03:04:39;12.80;99.90
25192;DHT22;13143;50.924;5.320;2023-10-31T03:07:05;12.80;99.90
25192;DHT22;13143;50.924;5.320;2023-10-31T03:09:31;12.80;99.90
25192;DHT22;13143;50.924;5.320;2023-10-31T03:11:57;12.80;99.90
25192;DHT22;13143;50.924;5.320;2023-10-31T03:14:22;12.80;99.90
25192;DHT22;13143;50.924;5.320;2023-10-31T03:16:48;12.80;99.90
25192;DHT22;13143;50.924;5.320;2023-10-31T03:19:14;12.80;99.90
25192;DHT22;13143;50.924;5.320;2023-10-31T03:21:40;12.80;99.90
25192;DHT22;13143;50.924;5.320;2023-10-31T03:24:05;12.80;99.90
25192;DHT22;13143;50.924;5.320;2023-10-31T03:26:31;12.80;99.90
25192;DHT22;13143;50.924;5.320;2023-10-31T03:28:57;12.80;99.90
25192;DHT22;13143;50.924;5.320;2023-10-31T03:31:23;12.80;99.90
25192;DHT22;13143;50.924;5.320;2023-10-31T03:33:49;12.80;99.90
25192;DHT22;13143;50.924;5.320;2023-10-31T03:36:15;12.80;99.90
25192;DHT22;13143;50.924;5.320;2023-10-31T03:38:41;12.80;99.90
25192;DHT22;13143;50.924;5.320;2023-10-31T03:41:07;12.80;99.90
25192;DHT22;13143;50.924;5.320;2023-10-31T03:43:33;12.70;99.90
25192;DHT22;13143;50.924;5.320;2023-10-31T03:45:59;12.70;99.90
25192;DHT22;13143;50.924;5.320;2023-10-31T03:48:25;12.70;99.90
25192;DHT22;13143;50.924;5.320;2023-10-31T03:50:51;12.70;99.90
25192;DHT22;13143;50.924;5.320;2023-10-31T03:53:17;12.70;99.90
25192;DHT22;13143;50.924;5.320;2023-10-31T03:55:43;12.70;99.90
25192;DHT22;13143;50.924;5.320;2023-10-31T03:58:08;12.70;99.90
25192;DHT22;13143;50.924;5.320;2023-10-31T04:00:34;12.80;99.90
25192;DHT22;13143;50.924;5.320;2023-10-31T04:03:00;12.70;99.90
25192;DHT22;13143;50.924;5.320;2023-10-31T04:05:26;12.70;99.90
25192;DHT22;13143;50.924;5.320;2023-10-31T04:07:51;12.70;99.90
25192;DHT22;13143;50.924;5.320;2023-10-31T04:10:18;12.70;99.90
25192;DHT22;13143;50.924;5.320;2023-10-31T04:12:44;12.70;99.90
25192;DHT22;13143;50.924;5.320;2023-10-31T04:15:10;12.70;99.90
25192;DHT22;13143;50.924;5.320;2023-10-31T04:17:36;12.70;99.90
25192;DHT22;13143;50.924;5.320;2023-10-31T04:20:02;12.70;99.90
25192;DHT22;13143;50.924;5.320;2023-10-31T04:22:28;12.70;99.90
25192;DHT22;13143;50.924;5.320;2023-10-31T04:24:53;12.70;99.90
25192;DHT22;13143;50.924;5.320;2023-10-31T04:27:19;12.70;99.90
25192;DHT22;13143;50.924;5.320;2023-10-31T04:29:45;12.70;99.90
25192;DHT22;13143;50.924;5.320;2023-10-31T04:32:11;12.70;99.90
25192;DHT22;13143;50.924;5.320;2023-10-31T04:34:37;12.70;99.90
25192;DHT22;13143;50.924;5.320;2023-10-31T04:37:03;12.60;99.90
25192;DHT22;13143;50.924;5.320;2023-10-31T04:39:29;12.60;99.90
25192;DHT22;13143;50.924;5.320;2023-10-31T04:41:55;12.60;99.90
25192;DHT22;13143;50.924;5.320;2023-10-31T04:44:21;12.60;99.90
25192;DHT22;13143;50.924;5.320;2023-10-31T04:46:47;12.60;99.90
25192;DHT22;13143;50.924;5.320;2023-10-31T04:49:13;12.60;99.90
25192;DHT22;13143;50.924;5.320;2023-10-31T04:51:38;12.60;99.90
25192;DHT22;13143;50.924;5.320;2023-10-31T04:54:05;12.60;99.90
25192;DHT22;13143;50.924;5.320;2023-10-31T04:56:31;12.60;99.90
25192;DHT22;13143;50.924;5.320;2023-10-31T04:58:56;12.60;99.90
25192;DHT22;13143;50.924;5.320;2023-10-31T05:01:22;12.60;99.90
25192;DHT22;13143;50.924;5.320;2023-10-31T05:03:48;12.60;99.90
25192;DHT22;13143;50.924;5.320;2023-10-31T05:06:22;12.60;99.90
25192;DHT22;13143;50.924;5.320;2023-10-31T05:08:48;12.60;99.90
25192;DHT22;13143;50.924;5.320;2023-10-31T05:11:17;12.60;99.90
25192;DHT22;13143;50.924;5.320;2023-10-31T05:13:44;12.50;99.90
25192;DHT22;13143;50.924;5.320;2023-10-31T05:16:10;12.50;99.90
25192;DHT22;13143;50.924;5.320;2023-10-31T05:18:37;12.50;99.90
25192;DHT22;13143;50.924;5.320;2023-10-31T05:21:04;12.50;99.90
25192;DHT22;13143;50.924;5.320;2023-10-31T05:23:29;12.50;99.90
25192;DHT22;13143;50.924;5.320;2023-10-31T05:25:55;12.50;99.90
25192;DHT22;13143;50.924;5.320;2023-10-31T05:28:21;12.50;99.90
25192;DHT22;13143;50.924;5.320;2023-10-31T05:30:47;12.50;99.90
25192;DHT22;13143;50.924;5.320;2023-10-31T05:33:15;12.50;99.90
25192;DHT22;13143;50.924;5.320;2023-10-31T05:35:41;12.50;99.90
25192;DHT22;13143;50.924;5.320;2023-10-31T05:38:07;12.50;99.90
25192;DHT22;13143;50.924;5.320;2023-10-31T05:40:33;12.40;99.90
25192;DHT22;13143;50.924;5.320;2023-10-31T05:43:01;12.40;99.90
25192;DHT22;13143;50.924;5.320;2023-10-31T05:45:27;12.40;99.90
25192;DHT22;13143;50.924;5.320;2023-10-31T05:47:53;12.40;99.90
25192;DHT22;13143;50.924;5.320;2023-10-31T05:50:19;12.40;99.90
25192;DHT22;13143;50.924;5.320;2023-10-31T05:52:45;12.40;99.90
25192;DHT22;13143;50.924;5.320;2023-10-31T05:55:10;12.40;99.90
25192;DHT22;13143;50.924;5.320;2023-10-31T05:57:36;12.40;99.90
25192;DHT22;13143;50.924;5.320;2023-10-31T06:00:02;12.30;99.90
25192;DHT22;13143;50.924;5.320;2023-10-31T06:02:27;12.30;99.90
25192;DHT22;13143;50.924;5.320;2023-10-31T06:04:55;12.30;99.90
25192;DHT22;13143;50.924;5.320;2023-10-31T06:07:21;12.30;99.90
25192;DHT22;13143;50.924;5.320;2023-10-31T06:09:46;12.30;99.90
25192;DHT22;13143;50.924;5.320;2023-10-31T06:12:12;12.30;99.90
25192;DHT22;13143;50.924;5.320;2023-10-31T06:14:38;12.30;99.90
25192;DHT22;13143;50.924;5.320;2023-10-31T06:17:04;12.30;99.90
25192;DHT22;13143;50.924;5.320;2023-10-31T06:19:34;12.30;99.90
25192;DHT22;13143;50.924;5.320;2023-10-31T06:22:00;12.30;99.90
25192;DHT22;13143;50.924;5.320;2023-10-31T06:24:26;12.30;99.90
25192;DHT22;13143;50.924;5.320;2023-10-31T06:26:52;12.30;99.90
25192;DHT22;13143;50.924;5.320;2023-10-31T06:29:18;12.20;99.90
25192;DHT22;13143;50.924;5.320;2023-10-31T06:31:43;12.30;99.90
25192;DHT22;13143;50.924;5.320;2023-10-31T06:34:09;12.20;99.90
25192;DHT22;13143;50.924;5.320;2023-10-31T06:36:35;12.20;99.90
25192;DHT22;13143;50.924;5.320;2023-10-31T06:39:01;12.20;99.90
25192;DHT22;13143;50.924;5.320;2023-10-31T06:41:27;12.20;99.90
25192;DHT22;13143;50.924;5.320;2023-10-31T06:43:53;12.20;99.90
25192;DHT22;13143;50.924;5.320;2023-10-31T06:46:18;12.20;99.90
25192;DHT22;13143;50.924;5.320;2023-10-31T06:48:44;12.20;99.90
25192;DHT22;13143;50.924;5.320;2023-10-31T06:51:11;12.20;99.90
25192;DHT22;13143;50.924;5.320;2023-10-31T06:53:37;12.20;99.90
25192;DHT22;13143;50.924;5.320;2023-10-31T06:56:02;12.20;99.90
25192;DHT22;13143;50.924;5.320;2023-10-31T06:58:30;12.20;99.90
25192;DHT22;13143;50.924;5.320;2023-10-31T07:00:55;12.20;99.90
25192;DHT22;13143;50.924;5.320;2023-10-31T07:03:25;12.20;99.90
25192;DHT22;13143;50.924;5.320;2023-10-31T07:05:51;12.20;99.90
25192;DHT22;13143;50.924;5.320;2023-10-31T07:08:16;12.20;99.90
25192;DHT22;13143;50.924;5.320;2023-10-31T07:10:42;12.20;99.90
25192;DHT22;13143;50.924;5.320;2023-10-31T07:13:08;12.20;99.90
25192;DHT22;13143;50.924;5.320;2023-10-31T07:15:34;12.20;99.90
25192;DHT22;13143;50.924;5.320;2023-10-31T07:18:05;12.10;99.90
25192;DHT22;13143;50.924;5.320;2023-10-31T07:20:33;12.20;99.90
25192;DHT22;13143;50.924;5.320;2023-10-31T07:22:58;12.20;99.90
25192;DHT22;13143;50.924;5.320;2023-10-31T07:25:27;12.10;99.90
25192;DHT22;13143;50.924;5.320;2023-10-31T07:27:53;12.10;99.90
25192;DHT22;13143;50.924;5.320;2023-10-31T07:30:19;12.20;99.90
25192;DHT22;13143;50.924;5.320;2023-10-31T07:32:45;12.20;99.90
25192;DHT22;13143;50.924;5.320;2023-10-31T07:35:10;12.20;99.90
25192;DHT22;13143;50.924;5.320;2023-10-31T07:37:36;12.10;99.90
25192;DHT22;13143;50.924;5.320;2023-10-31T07:40:02;12.10;99.90
25192;DHT22;13143;50.924;5.320;2023-10-31T07:42:29;12.20;99.90
25192;DHT22;13143;50.924;5.320;2023-10-31T07:44:55;12.20;99.90
25192;DHT22;13143;50.924;5.320;2023-10-31T07:47:21;12.20;99.90
25192;DHT22;13143;50.924;5.320;2023-10-31T07:49:47;12.20;99.90
25192;DHT22;13143;50.924;5.320;2023-10-31T07:52:14;12.20;99.90
25192;DHT22;13143;50.924;5.320;2023-10-31T07:54:39;12.20;99.90
25192;DHT22;13143;50.924;5.320;2023-10-31T07:57:08;12.20;99.90
25192;DHT22;13143;50.924;5.320;2023-10-31T07:59:34;12.20;99.90
25192;DHT22;13143;50.924;5.320;2023-10-31T08:02:00;12.20;99.90
25192;DHT22;13143;50.924;5.320;2023-10-31T08:04:26;12.20;99.90
25192;DHT22;13143;50.924;5.320;2023-10-31T08:06:53;12.20;99.90
25192;DHT22;13143;50.924;5.320;2023-10-31T08:09:19;12.20;99.90
25192;DHT22;13143;50.924;5.320;2023-10-31T08:11:45;12.20;99.90
25192;DHT22;13143;50.924;5.320;2023-10-31T08:14:11;12.20;99.90
25192;DHT22;13143;50.924;5.320;2023-10-31T08:16:36;12.20;99.90
25192;DHT22;13143;50.924;5.320;2023-10-31T08:19:02;12.20;99.90
25192;DHT22;13143;50.924;5.320;2023-10-31T08:21:28;12.20;99.90
25192;DHT22;13143;50.924;5.320;2023-10-31T08:24:03;12.20;99.90
25192;DHT22;13143;50.924;5.320;2023-10-31T08:26:30;12.20;99.90
25192;DHT22;13143;50.924;5.320;2023-10-31T08:28:56;12.20;99.90
25192;DHT22;13143;50.924;5.320;2023-10-31T08:31:22;12.20;99.90
25192;DHT22;13143;50.924;5.320;2023-10-31T08:33:48;12.30;99.90
25192;DHT22;13143;50.924;5.320;2023-10-31T08:36:14;12.30;99.90
25192;DHT22;13143;50.924;5.320;2023-10-31T08:38:40;12.30;99.90
25192;DHT22;13143;50.924;5.320;2023-10-31T08:41:06;12.30;99.90
25192;DHT22;13143;50.924;5.320;2023-10-31T08:43:34;12.30;99.90
25192;DHT22;13143;50.924;5.320;2023-10-31T08:45:59;12.30;99.90
25192;DHT22;13143;50.924;5.320;2023-10-31T08:48:26;12.30;99.90
25192;DHT22;13143;50.924;5.320;2023-10-31T08:50:52;12.30;99.90
25192;DHT22;13143;50.924;5.320;2023-10-31T08:53:17;12.30;99.90
25192;DHT22;13143;50.924;5.320;2023-10-31T08:55:44;12.30;99.90
25192;DHT22;13143;50.924;5.320;2023-10-31T08:58:14;12.30;99.90
25192;DHT22;13143;50.924;5.320;2023-10-31T09:00:40;12.30;99.90
25192;DHT22;13143;50.924;5.320;2023-10-31T09:03:06;12.40;99.90
25192;DHT22;13143;50.924;5.320;2023-10-31T09:05:33;12.40;99.90
25192;DHT22;13143;50.924;5.320;2023-10-31T09:07:59;12.40;99.90
25192;DHT22;13143;50.924;5.320;2023-10-31T09:10:24;12.40;99.90
25192;DHT22;13143;50.924;5.320;2023-10-31T09:12:50;12.40;99.90
25192;DHT22;13143;50.924;5.320;2023-10-31T09:15:16;12.40;99.90
25192;DHT22;13143;50.924;5.320;2023-10-31T09:17:42;12.40;99.90
25192;DHT22;13143;50.924;5.320;2023-10-31T09:20:08;12.50;99.90
25192;DHT22;13143;50.924;5.320;2023-10-31T09:22:34;12.50;99.90
25192;DHT22;13143;50.924;5.320;2023-10-31T09:24:59;12.50;99.90
25192;DHT22;13143;50.924;5.320;2023-10-31T09:27:25;12.50;99.90
25192;DHT22;13143;50.924;5.320;2023-10-31T09:29:51;12.50;99.90
25192;DHT22;13143;50.924;5.320;2023-10-31T09:32:18;12.50;99.90
25192;DHT22;13143;50.924;5.320;2023-10-31T09:34:44;12.50;99.90
25192;DHT22;13143;50.924;5.320;2023-10-31T09:37:09;12.50;99.90
25192;DHT22;13143;50.924;5.320;2023-10-31T09:39:35;12.60;99.90
25192;DHT22;13143;50.924;5.320;2023-10-31T09:42:01;12.60;99.90
25192;DHT22;13143;50.924;5.320;2023-10-31T09:44:27;12.60;99.90
25192;DHT22;13143;50.924;5.320;2023-10-31T09:46:53;12.60;99.90
25192;DHT22;13143;50.924;5.320;2023-10-31T09:49:19;12.70;99.90
25192;DHT22;13143;50.924;5.320;2023-10-31T09:51:46;12.70;99.90
25192;DHT22;13143;50.924;5.320;2023-10-31T09:54:13;12.70;99.90
25192;DHT22;13143;50.924;5.320;2023-10-31T09:56:41;12.70;99.90
25192;DHT22;13143;50.924;5.320;2023-10-31T09:59:07;12.70;99.90
25192;DHT22;13143;50.924;5.320;2023-10-31T10:01:33;12.70;99.90
25192;DHT22;13143;50.924;5.320;2023-10-31T10:03:59;12.70;99.90
25192;DHT22;13143;50.924;5.320;2023-10-31T10:06:26;12.80;99.90
25192;DHT22;13143;50.924;5.320;2023-10-31T10:08:52;12.80;99.90
25192;DHT22;13143;50.924;5.320;2023-10-31T10:11:18;12.80;99.90
25192;DHT22;13143;50.924;5.320;2023-10-31T10:13:44;12.80;99.90
25192;DHT22;13143;50.924;5.320;2023-10-31T10:16:10;12.80;99.90
25192;DHT22;13143;50.924;5.320;2023-10-31T10:18:36;12.80;99.90
25192;DHT22;13143;50.924;5.320;2023-10-31T10:21:05;12.80;99.90
25192;DHT22;13143;50.924;5.320;2023-10-31T10:23:32;12.80;99.90
25192;DHT22;13143;50.924;5.320;2023-10-31T10:25:59;12.80;99.90
25192;DHT22;13143;50.924;5.320;2023-10-31T10:28:26;12.90;99.90
25192;DHT22;13143;50.924;5.320;2023-10-31T10:30:53;12.80;99.90
25192;DHT22;13143;50.924;5.320;2023-10-31T10:33:20;12.80;99.90
25192;DHT22;13143;50.924;5.320;2023-10-31T10:35:46;12.90;99.90
25192;DHT22;13143;50.924;5.320;2023-10-31T10:38:16;12.90;99.90
25192;DHT22;13143;50.924;5.320;2023-10-31T10:40:47;12.90;99.90
25192;DHT22;13143;50.924;5.320;2023-10-31T10:43:23;12.90;99.90
25192;DHT22;13143;50.924;5.320;2023-10-31T10:45:57;12.90;99.90
25192;DHT22;13143;50.924;5.320;2023-10-31T10:48:25;12.90;99.90
25192;DHT22;13143;50.924;5.320;2023-10-31T10:51:13;12.90;99.90
25192;DHT22;13143;50.924;5.320;2023-10-31T10:53:54;12.90;99.90
25192;DHT22;13143;50.924;5.320;2023-10-31T10:56:29;12.90;99.90
25192;DHT22;13143;50.924;5.320;2023-10-31T11:01:49;13.00;99.90
25192;DHT22;13143;50.924;5.320;2023-10-31T11:04:16;13.00;99.90
25192;DHT22;13143;50.924;5.320;2023-10-31T11:06:42;13.00;99.90
25192;DHT22;13143;50.924;5.320;2023-10-31T11:09:10;13.00;99.90
25192;DHT22;13143;50.924;5.320;2023-10-31T11:11:39;13.00;99.90
25192;DHT22;13143;50.924;5.320;2023-10-31T11:14:06;13.00;99.90
25192;DHT22;13143;50.924;5.320;2023-10-31T11:16:49;13.00;99.90
25192;DHT22;13143;50.924;5.320;2023-10-31T11:19:17;13.10;99.90
25192;DHT22;13143;50.924;5.320;2023-10-31T11:21:58;13.10;99.90
25192;DHT22;13143;50.924;5.320;2023-10-31T11:24:27;13.10;99.90
25192;DHT22;13143;50.924;5.320;2023-10-31T11:26:58;13.10;99.90
25192;DHT22;13143;50.924;5.320;2023-10-31T11:29:25;13.10;99.90
25192;DHT22;13143;50.924;5.320;2023-10-31T11:31:53;13.10;99.90
25192;DHT22;13143;50.924;5.320;2023-10-31T11:34:20;13.10;99.90
25192;DHT22;13143;50.924;5.320;2023-10-31T11:36:46;13.20;99.90
25192;DHT22;13143;50.924;5.320;2023-10-31T11:39:18;13.10;99.90
25192;DHT22;13143;50.924;5.320;2023-10-31T11:41:49;13.20;99.90
25192;DHT22;13143;50.924;5.320;2023-10-31T11:44:22;13.20;99.90
25192;DHT22;13143;50.924;5.320;2023-10-31T11:46:50;13.20;99.90
25192;DHT22;13143;50.924;5.320;2023-10-31T11:49:18;13.20;99.90
25192;DHT22;13143;50.924;5.320;2023-10-31T11:52:17;13.20;99.90
25192;DHT22;13143;50.924;5.320;2023-10-31T11:54:43;13.30;99.90
25192;DHT22;13143;50.924;5.320;2023-10-31T11:57:09;13.30;99.90
25192;DHT22;13143;50.924;5.320;2023-10-31T11:59:38;13.30;99.90
25192;DHT22;13143;50.924;5.320;2023-10-31T12:02:14;13.30;99.90
25192;DHT22;13143;50.924;5.320;2023-10-31T12:04:40;13.30;99.90
25192;DHT22;13143;50.924;5.320;2023-10-31T12:07:06;13.30;99.90
25192;DHT22;13143;50.924;5.320;2023-10-31T12:09:31;13.30;99.90
25192;DHT22;13143;50.924;5.320;2023-10-31T12:11:57;13.40;99.90
25192;DHT22;13143;50.924;5.320;2023-10-31T12:14:23;13.40;99.90
25192;DHT22;13143;50.924;5.320;2023-10-31T12:16:49;13.40;99.90
25192;DHT22;13143;50.924;5.320;2023-10-31T12:19:14;13.40;99.90
25192;DHT22;13143;50.924;5.320;2023-10-31T12:21:43;13.40;99.90
25192;DHT22;13143;50.924;5.320;2023-10-31T12:24:13;13.50;99.90
25192;DHT22;13143;50.924;5.320;2023-10-31T12:26:40;13.40;99.90
25192;DHT22;13143;50.924;5.320;2023-10-31T12:29:11;13.50;99.90
25192;DHT22;13143;50.924;5.320;2023-10-31T12:31:50;13.50;99.90
25192;DHT22;13143;50.924;5.320;2023-10-31T12:34:22;13.50;99.90
25192;DHT22;13143;50.924;5.320;2023-10-31T12:36:50;13.50;99.90
25192;DHT22;13143;50.924;5.320;2023-10-31T12:39:20;13.50;99.90
25192;DHT22;13143;50.924;5.320;2023-10-31T12:41:47;13.50;99.90
25192;DHT22;13143;50.924;5.320;2023-10-31T12:44:17;13.50;99.90
25192;DHT22;13143;50.924;5.320;2023-10-31T12:46:43;13.60;99.90
25192;DHT22;13143;50.924;5.320;2023-10-31T12:49:12;13.60;99.90
25192;DHT22;13143;50.924;5.320;2023-10-31T12:51:58;13.60;99.90
25192;DHT22;13143;50.924;5.320;2023-10-31T12:54:37;13.60;99.90
25192;DHT22;13143;50.924;5.320;2023-10-31T12:57:07;13.60;99.90
25192;DHT22;13143;50.924;5.320;2023-10-31T12:59:35;13.60;99.90
25192;DHT22;13143;50.924;5.320;2023-10-31T13:02:03;13.60;99.90
25192;DHT22;13143;50.924;5.320;2023-10-31T13:04:33;13.60;99.90
25192;DHT22;13143;50.924;5.320;2023-10-31T13:07:04;13.60;99.90
25192;DHT22;13143;50.924;5.320;2023-10-31T13:09:37;13.60;99.90
25192;DHT22;13143;50.924;5.320;2023-10-31T13:12:05;13.60;99.90
25192;DHT22;13143;50.924;5.320;2023-10-31T13:14:31;13.70;99.90
25192;DHT22;13143;50.924;5.320;2023-10-31T13:16:58;13.70;99.90
25192;DHT22;13143;50.924;5.320;2023-10-31T13:19:24;13.70;99.90
25192;DHT22;13143;50.924;5.320;2023-10-31T13:21:50;13.70;99.90
25192;DHT22;13143;50.924;5.320;2023-10-31T13:24:16;13.70;99.90
25192;DHT22;13143;50.924;5.320;2023-10-31T13:26:42;13.70;99.90
25192;DHT22;13143;50.924;5.320;2023-10-31T13:29:10;13.70;99.90
25192;DHT22;13143;50.924;5.320;2023-10-31T13:31:37;13.70;99.90
25192;DHT22;13143;50.924;5.320;2023-10-31T13:34:03;13.70;99.90
25192;DHT22;13143;50.924;5.320;2023-10-31T13:36:29;13.60;99.90
25192;DHT22;13143;50.924;5.320;2023-10-31T13:38:55;13.70;99.90
25192;DHT22;13143;50.924;5.320;2023-10-31T13:41:20;13.70;99.90
25192;DHT22;13143;50.924;5.320;2023-10-31T13:43:46;13.60;99.90
25192;DHT22;13143;50.924;5.320;2023-10-31T13:46:13;13.70;99.90
25192;DHT22;13143;50.924;5.320;2023-10-31T13:48:39;13.60;99.90
25192;DHT22;13143;50.924;5.320;2023-10-31T13:51:05;13.60;99.90
25192;DHT22;13143;50.924;5.320;2023-10-31T13:53:31;13.60;99.90
25192;DHT22;13143;50.924;5.320;2023-10-31T13:55:56;13.60;99.90
25192;DHT22;13143;50.924;5.320;2023-10-31T13:58:22;13.70;99.90
25192;DHT22;13143;50.924;5.320;2023-10-31T14:00:48;13.70;99.90
25192;DHT22;13143;50.924;5.320;2023-10-31T14:03:14;13.70;99.90
25192;DHT22;13143;50.924;5.320;2023-10-31T14:05:40;13.60;99.90
25192;DHT22;13143;50.924;5.320;2023-10-31T14:08:07;13.60;99.90
25192;DHT22;13143;50.924;5.320;2023-10-31T14:10:33;13.70;99.90
25192;DHT22;13143;50.924;5.320;2023-10-31T14:12:59;13.60;99.90
25192;DHT22;13143;50.924;5.320;2023-10-31T14:15:25;13.60;99.90
25192;DHT22;13143;50.924;5.320;2023-10-31T14:17:51;13.60;99.90
25192;DHT22;13143;50.924;5.320;2023-10-31T14:20:17;13.60;99.90
25192;DHT22;13143;50.924;5.320;2023-10-31T14:22:49;13.60;99.90
25192;DHT22;13143;50.924;5.320;2023-10-31T14:25:15;13.60;99.90
25192;DHT22;13143;50.924;5.320;2023-10-31T14:27:42;13.60;99.90
25192;DHT22;13143;50.924;5.320;2023-10-31T14:30:12;13.60;99.90
25192;DHT22;13143;50.924;5.320;2023-10-31T14:32:40;13.60;99.90
25192;DHT22;13143;50.924;5.320;2023-10-31T14:35:06;13.60;99.90
25192;DHT22;13143;50.924;5.320;2023-10-31T14:37:32;13.60;99.90
25192;DHT22;13143;50.924;5.320;2023-10-31T14:39:58;13.60;99.90
25192;DHT22;13143;50.924;5.320;2023-10-31T14:42:24;13.60;99.90
25192;DHT22;13143;50.924;5.320;2023-10-31T14:44:50;13.60;99.90
25192;DHT22;13143;50.924;5.320;2023-10-31T14:47:17;13.60;99.90
25192;DHT22;13143;50.924;5.320;2023-10-31T14:49:44;13.60;99.90
25192;DHT22;13143;50.924;5.320;2023-10-31T14:52:10;13.60;99.90
25192;DHT22;13143;50.924;5.320;2023-10-31T14:54:35;13.60;99.90
25192;DHT22;13143;50.924;5.320;2023-10-31T14:57:02;13.60;99.90
25192;DHT22;13143;50.924;5.320;2023-10-31T14:59:28;13.60;99.90
25192;DHT22;13143;50.924;5.320;2023-10-31T15:01:54;13.50;99.90
25192;DHT22;13143;50.924;5.320;2023-10-31T15:04:20;13.50;99.90
25192;DHT22;13143;50.924;5.320;2023-10-31T15:06:46;13.60;99.90
25192;DHT22;13143;50.924;5.320;2023-10-31T15:09:11;13.60;99.90
25192;DHT22;13143;50.924;5.320;2023-10-31T15:11:37;13.50;99.90
25192;DHT22;13143;50.924;5.320;2023-10-31T15:14:03;13.60;99.90
25192;DHT22;13143;50.924;5.320;2023-10-31T15:16:29;13.50;99.90
25192;DHT22;13143;50.924;5.320;2023-10-31T15:18:55;13.50;99.90
25192;DHT22;13143;50.924;5.320;2023-10-31T15:21:25;13.60;99.90
25192;DHT22;13143;50.924;5.320;2023-10-31T15:23:50;13.50;99.90
25192;DHT22;13143;50.924;5.320;2023-10-31T15:26:16;13.50;99.90
25192;DHT22;13143;50.924;5.320;2023-10-31T15:28:42;13.50;99.90
25192;DHT22;13143;50.924;5.320;2023-10-31T15:31:09;13.60;99.90